Latest Coastal Weather Observations for Weipa

IDQ60701

Issued at 2:31 am EST Monday 22 December 2014 (issued every 10 minutes, with the page automatically refreshed every 10 minutes)

About coastal observations | Map of coastal stations | Coastal observations for QLD | Marine services | Other Formats
Station Details ID: 027045 Name: WEIPA AERO Lat: -12.68 Lon: 141.92 Height: 17.96 m
Data from the previous 72 hours. | See also: Recent months at Weipa
Date/Time
EST
Temp

°C
Wind Pressure Rain
since 9am
mm
Weather Cloud Vis
km
Sea
Height
m
Swell
Dir
 
Speed
knots
Gust
knots
hPa Trend Height
m
Period
s
Dir
22/02:30am 25.6 SSE 1 3 1007.6 - 0.0 - - 10 - - - -
22/02:00am 25.9 ESE 4 5 1007.9 - 0.0 - - 10 - - - -
22/01:30am 26.4 ENE 3 6 1008.2 - 0.0 - - 10 - - - -
22/01:00am 26.7 E 3 5 1008.7 - 0.0 - - 10 - - - -
22/12:30am 27.0 E 3 6 1009.2 - 0.0 - - 10 - - - -
22/12:00am 27.5 E 3 5 1009.1 - 0.0 - - 10 - - - -
 
Date/Time
EST
Temp

°C
Wind Pressure Rain
since 9am
mm
Weather Cloud Vis
km
Sea
Height
m
Swell
Dir
 
Speed
knots
Gust
knots
hPa Trend Height
m
Period
s
Dir
21/11:30pm 27.9 E 5 7 1009.3 - 0.0 - - 10 - - - -
21/11:00pm 28.3 ENE 5 8 1009.0 - 0.0 - - 10 - - - -
21/10:30pm 28.7 E 6 9 1009.0 - 0.0 - - 10 - - - -
21/10:00pm 29.3 E 7 11 1008.6 - 0.0 - Partly cloudy 10 - - - -
21/09:30pm 29.4 E 4 5 1008.5 - 0.0 - Partly cloudy 10 - - - -
21/09:00pm 29.1 ENE 3 9 1008.1 - 0.0 - Cloudy 10 - - - -
21/08:30pm 29.1 NNE 2 3 1007.7 - 0.0 - Partly cloudy 10 - - - -
21/08:00pm 29.3 NE 3 3 1007.3 - 0.0 - - 10 - - - -
21/07:30pm 29.6 NW 1 2 1007.0 - 0.0 - Partly cloudy 10 - - - -
21/07:00pm 29.6 W 3 4 1006.7 - 0.0 - Partly cloudy 10 - - - -
21/06:30pm 29.9 NW 6 8 1006.3 - 0.0 - Partly cloudy 10 - - - -
21/06:00pm 31.2 NNW 9 14 1005.8 - 0.0 - Cloudy 10 - - - -
21/05:30pm 32.0 N 10 16 1005.9 - 0.0 - Partly cloudy 10 - - - -
21/05:00pm 35.4 ESE 6 10 1005.5 - 0.0 - Partly cloudy 10 - - - -
21/04:30pm 35.3 SSE 5 9 1005.6 - 0.0 - - 10 - - - -
21/04:00pm 34.8 SE 6 10 1005.8 - 0.0 - - 10 - - - -
21/03:30pm 34.9 SE 4 10 1006.2 - 0.0 - - 10 - - - -
21/03:00pm 34.6 SSW 2 6 1006.6 F 0.0 Fine Mostly cloudy 35 - - - -
21/02:30pm 33.3 SSW 4 8 1007.4 - 0.0 - - 10 - - - -
21/02:00pm 32.8 S 4 10 1007.8 - 0.0 - Partly cloudy 10 - - - -
21/01:30pm 32.4 SSW 4 8 1008.3 - 0.0 - Partly cloudy 10 - - - -
21/01:00pm 33.3 S 3 6 1008.9 - 0.0 - Partly cloudy 10 - - - -
21/12:30pm 33.2 ESE 7 13 1009.3 - 0.0 - - 10 - - - -
21/12:00pm 33.5 E 6 14 1009.6 R 0.0 Fine Mostly cloudy 35 - - - -
21/11:30am 32.3 NE 7 10 1010.1 - 0.0 - - 10 - - - -
21/11:00am 31.3 ENE 7 12 1010.4 - 0.0 - Partly cloudy 10 - - - -
21/10:30am 31.2 E 9 13 1010.4 - 0.0 - Partly cloudy 10 - - - -
21/10:00am 30.4 E 8 13 1010.5 - 0.0 - Partly cloudy 10 - - - -
21/09:30am 29.5 E 7 12 1010.5 - 0.0 - Partly cloudy 10 - - - -
21/09:00am 29.2 ENE 7 10 1010.1 R 0.0 Fine Mostly cloudy 30 - - - -
21/08:30am 28.6 ENE 7 12 1010.1 - 0.0 - Partly cloudy 10 - - - -
21/08:00am 28.2 ENE 4 7 1009.8 - 0.0 - Mostly clear 10 - - - -
21/07:30am 27.4 E 1 2 1009.9 - 0.0 - - 10 - - - -
21/07:00am 25.7 CALM 0 1 1009.6 - 0.0 - - 10 - - - -
21/06:30am 24.6 CALM 0 0 1009.2 - 0.0 - - 10 - - - -
21/06:00am 24.5 NE 1 2 1008.6 F 0.0 Haze Partly cloudy 15 - - - -
21/05:30am 24.5 ENE 3 4 1008.5 - 0.0 - - 10 - - - -
21/05:00am 24.9 SE 1 2 1008.3 - 0.0 - - 10 - - - -
21/04:30am 25.1 CALM 0 0 1008.2 - 0.0 - - 10 - - - -
21/04:00am 25.2 ENE 2 3 1008.1 - 0.0 - - 10 - - - -
21/03:30am 25.6 ENE 1 2 1008.2 - 0.0 - - 10 - - - -
21/03:00am 25.9 ESE 1 2 1008.4 - 0.0 - - 10 - - - -
21/02:30am 26.1 CALM 0 1 1008.8 - 0.0 - Partly cloudy 10 - - - -
21/02:00am 26.4 NE 1 2 1008.9 - 0.0 - Partly cloudy 10 - - - -
21/01:30am 26.8 ENE 1 2 1009.1 - 0.0 - Partly cloudy 10 - - - -
21/01:00am 26.9 NE 1 2 1009.1 - 0.0 - Partly cloudy 10 - - - -
21/12:30am 27.1 NNE 2 4 1009.2 - 0.0 - - 10 - - - -
21/12:00am 27.5 ENE 4 7 1009.1 - 0.0 - - 10 - - - -
 
Date/Time
EST
Temp

°C
Wind Pressure Rain
since 9am
mm
Weather Cloud Vis
km
Sea
Height
m
Swell
Dir
 
Speed
knots
Gust
knots
hPa Trend Height
m
Period
s
Dir
20/11:30pm 27.9 ENE 5 8 1009.3 - 0.0 - Partly cloudy 10 - - - -
20/11:00pm 28.4 ENE 6 9 1009.4 - 0.0 - Partly cloudy 10 - - - -
20/10:30pm 28.6 NE 5 9 1009.2 - 0.0 - Partly cloudy 10 - - - -
20/10:00pm 28.6 NE 3 5 1009.0 - 0.0 - Partly cloudy 10 - - - -
20/09:30pm 28.7 NE 5 7 1008.7 - 0.0 - Partly cloudy 10 - - - -
20/09:00pm 28.9 NNE 2 3 1008.0 - 0.0 - Cloudy 10 - - - -
20/08:30pm 29.3 N 2 4 1008.0 - 0.0 - Partly cloudy 10 - - - -
20/08:00pm 29.6 NNW 1 3 1007.8 - 0.0 - Partly cloudy 10 - - - -
20/07:30pm 29.5 WNW 3 5 1007.3 - 0.0 - Partly cloudy 10 - - - -
20/07:00pm 29.9 W 3 7 1006.6 - 0.0 - Partly cloudy 10 - - - -
20/06:30pm 30.2 W 5 9 1006.4 - 0.0 - Partly cloudy 10 - - - -
20/06:00pm 31.0 W 5 10 1006.1 - 0.0 - Cloudy 10 - - - -
20/05:30pm 31.4 WSW 6 12 1005.8 - 0.0 - Partly cloudy 10 - - - -
20/05:00pm 32.0 W 7 13 1005.6 - 0.0 - - 10 - - - -
20/04:30pm 32.2 W 9 14 1005.6 - 0.0 - Partly cloudy 10 - - - -
20/04:00pm 33.0 W 8 13 1005.5 - 0.0 - Partly cloudy 10 - - - -
20/03:30pm 34.5 SW 4 9 1005.6 - 0.0 - Partly cloudy 10 - - - -
20/03:00pm 34.1 SW 6 10 1005.7 - 0.0 - Cloudy 10 - - - -
20/02:30pm 34.2 SW 4 8 1006.3 - 0.0 - Partly cloudy 10 - - - -
20/02:00pm 33.7 WNW 5 7 1006.8 - 0.0 - Partly cloudy 10 - - - -
20/01:30pm 33.3 SW 3 8 1007.5 - 0.0 - Partly cloudy 10 - - - -
20/01:00pm 33.4 E 4 9 1008.0 - 0.0 - Partly cloudy 10 - - - -
20/12:30pm 33.0 NNE 3 7 1008.3 - 0.0 - Partly cloudy 10 - - - -
20/12:00pm 33.0 SE 4 10 1008.7 - 0.0 - - 10 - - - -
20/11:30am 32.1 E 4 6 1009.5 - 0.0 - - 10 - - - -
20/11:00am 31.5 E 4 9 1010.0 - 0.0 - - 10 - - - -
20/10:30am 30.8 E 6 9 1010.3 - 0.0 - - 10 - - - -
20/10:00am 30.4 ENE 6 9 1010.4 - 0.0 - - 10 - - - -
20/09:30am 29.9 E 7 10 1010.5 - 0.0 - Partly cloudy 10 - - - -
20/09:00am 28.9 ENE 7 11 1010.3 - 13.8 - Cloudy 10 - - - -
20/08:30am 27.8 ENE 5 8 1010.4 - 13.8 - Partly cloudy 10 - - - -
20/08:00am 26.8 ENE 3 5 1010.4 - 13.8 - Partly cloudy 10 - - - -
20/07:30am 26.2 E 2 4 1010.4 - 13.8 - Partly cloudy 10 - - - -
20/07:00am 25.6 NNE 2 3 1010.1 - 13.8 - Partly cloudy 10 - - - -
20/06:30am 25.3 E 3 4 1009.6 - 13.8 - Cloudy 10 - - - -
20/06:00am 25.1 E 3 4 1008.7 - 13.8 - Cloudy 10 - - - -
20/05:30am 25.1 S 1 2 1008.8 - 13.8 - Partly cloudy 10 - - - -
20/05:00am 25.1 CALM 0 0 1008.5 - 13.8 - Cloudy 10 - - - -
20/04:30am 24.8 CALM 0 0 1008.0 - 13.8 - Partly cloudy 10 - - - -
20/04:00am 24.7 E 2 3 1008.0 - 13.8 - - 10 - - - -
20/03:30am 24.9 CALM 0 0 1008.4 - 13.8 - - 10 - - - -
20/03:00am 24.8 ENE 3 3 1007.7 - 13.8 - Cloudy 10 - - - -
20/02:30am 25.2 ESE 2 2 1008.6 - 13.8 - Partly cloudy 10 - - - -
20/02:00am 25.1 ENE 1 2 1008.9 - 13.8 - Partly cloudy 10 - - - -
20/01:30am 24.8 E 3 4 1009.3 - 13.8 - - 10 - - - -
20/01:00am 24.8 ESE 1 3 1009.8 - 13.8 - Partly cloudy 10 - - - -
20/12:30am 24.6 E 1 3 1009.6 - 13.8 - - 10 - - - -
20/12:00am 24.5 ESE 1 2 1010.1 - 13.8 - - 10 - - - -
 
Date/Time
EST
Temp

°C
Wind Pressure Rain
since 9am
mm
Weather Cloud Vis
km
Sea
Height
m
Swell
Dir
 
Speed
knots
Gust
knots
hPa Trend Height
m
Period
s
Dir
19/11:30pm 24.6 CALM 0 3 1010.8 - 13.8 - - 10 - - - -
19/11:00pm 24.7 SE 3 7 1011.0 - 13.8 - Partly cloudy 10 - - - -
19/10:50pm 23.9 S 3 6 1011.2 - 13.8 - Partly cloudy 10 - - - -
19/10:30pm 23.3 SE 4 7 1011.0 - 13.4 - Partly cloudy 0.6 - - - -
19/10:17pm 23.9 ESE 14 22 1011.2 - 7.8 - Partly cloudy 5 - - - -
19/10:05pm 26.4 ESE 15 24 1011.0 - 4.8 - Partly cloudy 10 - - - -
19/10:00pm 26.8 E 6 10 1010.6 - 4.8 - Partly cloudy 10 - - - -
19/09:30pm 26.9 N 5 8 1009.4 - 4.8 - Partly cloudy 10 - - - -
19/09:10pm 26.8 N 7 9 1009.3 - 4.4 - Partly cloudy 6 - - - -
19/09:00pm 28.3 ENE 5 8 1009.3 - 3.0 - Cloudy 10 - - - -
19/08:30pm 29.6 NE 3 4 1009.0 - 2.8 - Cloudy 10 - - - -
19/08:00pm 29.7 SW 4 9 1008.4 - 2.8 - Partly cloudy 10 - - - -
19/07:30pm 29.4 W 4 8 1007.6 - 2.8 - - 10 - - - -
19/07:00pm 29.5 W 4 8 1007.7 - 2.8 - Partly cloudy 10 - - - -
19/06:40pm 29.3 W 5 11 1007.5 - 2.8 - Partly cloudy 10 - - - -
19/06:30pm 29.2 W 5 9 1007.2 - 2.8 - Partly cloudy 4 - - - -
19/06:14pm 30.5 WSW 4 9 1007.6 - 0.8 - Partly cloudy 5 - - - -
19/06:00pm 31.8 W 8 13 1007.3 - 0.0 - - 10 - - - -
19/05:30pm 31.8 W 8 16 1007.1 - 0.0 - - 10 - - - -
19/05:00pm 31.8 W 10 16 1006.6 - 0.0 - - 10 - - - -
19/04:30pm 32.3 W 8 15 1006.8 - 0.0 - - 10 - - - -
19/04:00pm 32.0 W 9 15 1007.1 - 0.0 - - 10 - - - -
19/03:30pm 33.0 W 10 15 1007.1 - 0.0 - - 10 - - - -
19/03:00pm 33.6 W 8 12 1007.1 - 0.0 - Cloudy 10 - - - -
19/02:30pm 34.0 W 6 10 1007.5 - 0.0 - Partly cloudy 10 - - - -
19/02:00pm 33.5 W 7 11 1007.8 - 0.0 - Partly cloudy 10 - - - -
19/01:30pm 34.3 NW 6 10 1007.9 - 0.0 - Partly cloudy 10 - - - -
19/01:00pm 33.9 SW 4 9 1008.6 - 0.0 - Partly cloudy 10 - - - -
19/12:30pm 33.5 SW 4 9 1009.0 - 0.0 - - 10 - - - -
19/12:00pm 32.7 S 2 5 1009.2 - 0.0 - Cloudy 10 - - - -
19/11:30am 33.0 SSW 2 5 1009.8 - 0.0 - Partly cloudy 10 - - - -
19/11:00am 31.1 WSW 2 5 1010.4 - 0.0 - Cloudy 10 - - - -
19/10:30am 30.9 N 5 8 1010.8 - 0.0 - Partly cloudy 10 - - - -
19/10:00am 30.5 NNW 4 7 1011.1 - 0.0 - Partly cloudy 10 - - - -
19/09:30am 30.7 N 3 7 1011.3 - 0.0 - Partly cloudy 10 - - - -
19/09:00am 30.5 E 2 9 1011.2 - 0.0 - Cloudy 10 - - - -
19/08:30am 29.4 ENE 5 8 1011.4 - 0.0 - - 10 - - - -
19/08:00am 28.6 NE 5 8 1011.0 - 0.0 - - 10 - - - -
19/07:30am 27.9 E 7 11 1011.0 - 0.0 - Partly cloudy 10 - - - -
19/07:00am 27.0 NE 3 5 1010.8 - 0.0 - - 10 - - - -
19/06:30am 26.3 ENE 3 3 1010.4 - 0.0 - - 10 - - - -
19/06:00am 25.9 NNE 2 4 1009.8 - 0.0 - - 10 - - - -
19/05:30am 26.1 ENE 3 5 1009.4 - 0.0 - - 10 - - - -
19/05:00am 26.3 E 4 6 1009.2 - 0.0 - - 10 - - - -
19/04:30am 26.2 ENE 3 4 1009.3 - 0.0 - - 10 - - - -
19/04:00am 26.4 E 3 4 1009.3 - 0.0 - Partly cloudy 10 - - - -
19/03:30am 26.7 ESE 4 5 1009.2 - 0.0 - - 10 - - - -
19/03:00am 26.8 NE 2 4 1009.2 - 0.0 - - 10 - - - -

Other Formats:

Comma delimited format used in spreadsheet applications
http://www.bom.gov.au/fwo/IDQ60701/IDQ60701.94170.axf

JavaScript Object Notation format (JSON) in row-major order
http://www.bom.gov.au/fwo/IDQ60701/IDQ60701.94170.json